Time;durP1;ratioP1;P1;durP2;ratioP2;P2;SDS_P1;SDS_P2;PMS_P1;PMS_P2;Temp;Humidity;BMP_temperature;BMP_pressure;BME280_temperature;BME280_humidity;BME280_pressure;Samples;Min_cycle;Max_cycle;Signal;HPM_P1;HPM_P2
2023/04/24 00:00:21;;;;;;;5.18;3.40;;;;;;;17.76;53.56;99967.84;4970235;28;97212;-71
2023/04/24 00:02:48;;;;;;;6.07;3.78;;;;;;;17.84;53.18;99972.59;4968563;28;99303;-70
2023/04/24 00:05:17;;;;;;;3.78;3.20;;;;;;;17.84;53.17;99965.44;4968933;28;97991;-71
2023/04/24 00:07:45;;;;;;;4.80;3.80;;;;;;;17.86;53.38;99957.28;4965677;28;99146;-71
2023/04/24 00:10:13;;;;;;;4.47;3.63;;;;;;;17.70;53.75;99957.63;4968553;28;97538;-71
2023/04/24 00:12:39;;;;;;;5.03;4.07;;;;;;;17.76;53.80;99951.81;4965793;28;101685;-70
2023/04/24 00:15:07;;;;;;;4.30;3.85;;;;;;;17.65;54.04;99954.47;4968016;28;99305;-70
2023/04/24 00:17:33;;;;;;;4.95;4.05;;;;;;;17.74;53.88;99948.38;4968265;28;101892;-70
2023/04/24 00:19:59;;;;;;;4.57;3.60;;;;;;;17.77;53.87;99945.50;4967603;28;97184;-70
2023/04/24 00:22:26;;;;;;;7.82;4.03;;;;;;;17.60;54.52;99950.38;4968945;28;98865;-70
2023/04/24 00:24:54;;;;;;;6.10;4.03;;;;;;;17.59;54.60;99941.53;4969509;28;98905;-70
2023/04/24 00:27:21;;;;;;;4.00;3.60;;;;;;;17.65;54.50;99933.09;4968192;28;96757;-71
2023/04/24 00:29:48;;;;;;;4.57;3.80;;;;;;;17.48;54.91;99929.00;4967312;28;96843;-70
2023/04/24 00:32:15;;;;;;;5.20;4.13;;;;;;;17.43;55.17;99936.53;4965240;28;99217;-70
2023/04/24 00:34:41;;;;;;;4.65;3.90;;;;;;;17.54;54.78;99922.34;4964398;28;98994;-70
2023/04/24 00:37:07;;;;;;;4.72;3.88;;;;;;;17.55;54.68;99926.72;4965923;28;96876;-70
2023/04/24 00:39:34;;;;;;;7.95;4.00;;;;;;;17.58;54.79;99920.28;4965377;28;96878;-70
2023/04/24 00:42:02;;;;;;;7.50;4.57;;;;;;;17.46;55.11;99922.91;4968718;28;98836;-71
2023/04/24 00:44:29;;;;;;;4.22;3.70;;;;;;;17.39;55.80;99908.31;4968819;28;97917;-71
2023/04/24 00:46:56;;;;;;;4.45;3.90;;;;;;;17.67;54.78;99907.09;4960852;28;96874;-71
2023/04/24 00:49:23;;;;;;;5.50;3.42;;;;;;;17.50;55.23;99902.19;4966251;28;96801;-71
2023/04/24 00:51:51;;;;;;;5.22;3.72;;;;;;;17.68;54.83;99900.78;4965960;28;98876;-71
2023/04/24 00:54:17;;;;;;;4.18;3.67;;;;;;;17.54;55.40;99899.16;4968105;28;99231;-70
2023/04/24 00:56:45;;;;;;;4.65;3.75;;;;;;;17.57;55.26;99895.41;4967860;28;97035;-72
2023/04/24 00:59:13;;;;;;;5.35;4.32;;;;;;;17.32;56.10;99891.09;4965322;28;96964;-69
2023/04/24 01:01:41;;;;;;;5.43;3.83;;;;;;;17.37;56.06;99883.59;4967091;28;98880;-69
2023/04/24 01:04:08;;;;;;;4.78;3.80;;;;;;;17.37;55.98;99880.91;4964529;28;98741;-70
2023/04/24 01:06:34;;;;;;;5.57;4.30;;;;;;;17.45;55.92;99889.19;4967333;28;97625;-70
2023/04/24 01:09:02;;;;;;;4.63;4.15;;;;;;;17.57;55.65;99897.22;4967235;28;97103;-70
2023/04/24 01:11:29;;;;;;;7.32;4.00;;;;;;;17.40;56.21;99906.50;4966757;28;97678;-70
2023/04/24 01:13:57;;;;;;;4.28;3.53;;;;;;;17.51;56.16;99903.88;4968470;28;98799;-70
2023/04/24 01:16:25;;;;;;;6.18;3.50;;;;;;;17.56;55.91;99907.03;4968636;28;98288;-70
2023/04/24 01:18:52;;;;;;;5.13;3.80;;;;;;;17.41;56.32;99908.22;4968066;28;96858;-70
2023/04/24 01:21:19;;;;;;;3.67;3.33;;;;;;;17.16;57.31;99903.06;4959556;28;98921;-70
2023/04/24 01:23:47;;;;;;;5.88;3.53;;;;;;;17.44;56.50;99897.31;4966924;28;99700;-69
2023/04/24 01:26:16;;;;;;;5.78;3.80;;;;;;;17.36;56.91;99897.91;4967640;28;96839;-70
2023/04/24 01:28:42;;;;;;;4.65;3.80;;;;;;;17.43;56.67;99901.81;4967102;28;97250;-70
2023/04/24 01:31:09;;;;;;;4.10;3.50;;;;;;;17.42;56.54;99899.25;4968078;28;98932;-70
2023/04/24 01:33:35;;;;;;;4.03;3.38;;;;;;;17.41;56.67;99894.88;4964838;28;99493;-70
2023/04/24 01:36:02;;;;;;;5.75;4.10;;;;;;;17.35;57.15;99890.00;4968204;28;96623;-69
2023/04/24 01:38:28;;;;;;;7.05;4.57;;;;;;;17.38;57.20;99890.63;4968421;28;97122;-69
2023/04/24 01:40:56;;;;;;;4.40;3.97;;;;;;;17.40;57.10;99885.16;4968235;28;98928;-69
2023/04/24 01:43:23;;;;;;;5.50;3.95;;;;;;;17.33;57.42;99889.25;4966077;28;98884;-70
2023/04/24 01:45:49;;;;;;;4.57;4.18;;;;;;;17.34;57.56;99888.28;4966507;28;97690;-70
2023/04/24 01:48:15;;;;;;;6.00;3.90;;;;;;;17.27;57.68;99884.38;4966373;28;97009;-69
2023/04/24 01:50:42;;;;;;;13.13;4.78;;;;;;;17.30;57.60;99870.81;4967776;28;98501;-70
2023/04/24 01:53:08;;;;;;;4.40;3.42;;;;;;;17.42;57.54;99877.88;4968393;28;99614;-69
2023/04/24 01:55:35;;;;;;;4.43;4.03;;;;;;;17.36;57.71;99876.53;4963339;28;96756;-70
2023/04/24 01:58:03;;;;;;;6.65;4.35;;;;;;;17.38;57.54;99874.63;4966194;28;96782;-70
2023/04/24 02:00:29;;;;;;;4.55;3.85;;;;;;;17.24;57.84;99869.47;4967871;28;101804;-70
2023/04/24 02:02:56;;;;;;;6.00;4.50;;;;;;;17.19;58.18;99870.81;4962353;28;99041;-71
2023/04/24 02:05:22;;;;;;;4.57;3.90;;;;;;;17.18;58.44;99869.09;4962176;28;96688;-70
2023/04/24 02:07:49;;;;;;;6.45;3.85;;;;;;;17.12;58.65;99865.94;4967910;28;96748;-70
2023/04/24 02:10:15;;;;;;;6.43;4.50;;;;;;;17.08;58.67;99864.44;4964201;28;98800;-70
2023/04/24 02:12:41;;;;;;;8.35;4.00;;;;;;;17.29;58.12;99863.78;4959915;28;101821;-70
2023/04/24 02:15:10;;;;;;;6.50;4.15;;;;;;;17.33;58.03;99858.06;4967869;28;96778;-70
2023/04/24 02:17:37;;;;;;;4.35;3.70;;;;;;;17.22;58.36;99854.53;4966846;28;97101;-71
2023/04/24 02:20:04;;;;;;;6.07;4.05;;;;;;;17.19;58.58;99847.63;4967297;28;99060;-70
2023/04/24 02:22:30;;;;;;;5.13;4.40;;;;;;;17.21;58.68;99844.81;4968017;28;97656;-71
2023/04/24 02:24:57;;;;;;;5.07;4.50;;;;;;;16.98;59.39;99850.13;4965565;28;96840;-70
2023/04/24 02:27:23;;;;;;;4.65;4.15;;;;;;;16.96;59.48;99840.50;4966203;28;98348;-70
2023/04/24 02:29:50;;;;;;;5.10;4.38;;;;;;;17.01;59.32;99849.00;4962241;28;98901;-70
2023/04/24 02:32:17;;;;;;;5.60;4.30;;;;;;;17.06;59.65;99854.88;4964265;28;98860;-71
2023/04/24 02:34:44;;;;;;;5.28;4.10;;;;;;;17.09;59.22;99852.81;4964609;28;96742;-69
2023/04/24 02:37:10;;;;;;;4.65;4.22;;;;;;;17.37;58.25;99856.03;4963205;28;96877;-69
2023/04/24 02:39:37;;;;;;;5.55;4.65;;;;;;;17.40;58.12;99847.75;4970672;28;99271;-71
2023/04/24 02:42:03;;;;;;;9.25;4.85;;;;;;;17.26;58.62;99840.84;4962413;28;99306;-70
2023/04/24 02:44:30;;;;;;;6.47;4.40;;;;;;;17.26;58.75;99850.69;4968790;28;96874;-70
2023/04/24 02:46:56;;;;;;;5.15;4.65;;;;;;;17.24;58.90;99849.94;4966003;28;96895;-69
2023/04/24 02:49:24;;;;;;;7.32;4.43;;;;;;;17.14;59.20;99855.13;4960016;28;101720;-70
2023/04/24 02:51:50;;;;;;;5.93;4.75;;;;;;;17.31;58.61;99848.50;4969930;28;99008;-72
2023/04/24 02:54:16;;;;;;;5.35;4.60;;;;;;;17.07;59.33;99849.41;4968025;28;96799;-70
2023/04/24 02:56:43;;;;;;;4.53;4.07;;;;;;;17.25;59.02;99848.97;4968839;28;97181;-71
2023/04/24 02:59:10;;;;;;;5.97;4.75;;;;;;;17.25;58.87;99835.63;4969752;28;99369;-71
2023/04/24 03:01:36;;;;;;;6.50;4.32;;;;;;;17.33;58.60;99835.84;4970683;28;101984;-69
2023/04/24 03:04:03;;;;;;;6.80;4.68;;;;;;;17.39;58.53;99840.75;4965913;28;96822;-71
2023/04/24 03:06:32;;;;;;;5.07;4.57;;;;;;;17.45;58.37;99837.59;4969214;28;96804;-69
2023/04/24 03:08:59;;;;;;;5.68;4.22;;;;;;;17.32;58.49;99835.03;4968477;28;99441;-71
2023/04/24 03:11:25;;;;;;;5.50;4.55;;;;;;;17.43;58.32;99847.53;4970194;28;101607;-69
2023/04/24 03:13:52;;;;;;;5.38;4.88;;;;;;;17.47;58.04;99843.66;4968854;28;97181;-70
2023/04/24 03:16:18;;;;;;;4.82;4.22;;;;;;;17.42;58.29;99849.34;4963520;28;96886;-70
2023/04/24 03:18:44;;;;;;;7.60;4.82;;;;;;;17.55;58.05;99857.25;4962389;28;99189;-70
2023/04/24 03:21:11;;;;;;;5.70;4.80;;;;;;;17.37;58.57;99856.03;4969396;28;99045;-70
2023/04/24 03:23:38;;;;;;;8.77;4.43;;;;;;;17.12;59.23;99857.94;4968867;28;96883;-70
2023/04/24 03:26:05;;;;;;;6.50;4.63;;;;;;;17.40;58.55;99858.44;4965897;28;96920;-69
2023/04/24 03:28:31;;;;;;;5.93;4.55;;;;;;;17.54;58.12;99852.88;4969948;28;98878;-70
2023/04/24 03:30:58;;;;;;;6.25;4.63;;;;;;;17.61;57.90;99851.47;4970978;28;98787;-72
2023/04/24 03:33:24;;;;;;;4.75;4.30;;;;;;;17.51;58.12;99854.00;4969531;28;97712;-69
2023/04/24 03:35:51;;;;;;;8.18;4.95;;;;;;;17.46;58.31;99850.81;4969798;28;97055;-71
2023/04/24 03:38:17;;;;;;;5.53;4.55;;;;;;;17.59;57.94;99840.00;4969427;28;99741;-70
2023/04/24 03:40:45;;;;;;;5.70;4.70;;;;;;;17.49;58.07;99847.06;4970634;28;98922;-69
2023/04/24 03:43:11;;;;;;;5.50;4.40;;;;;;;17.43;58.37;99856.41;4965848;28;97289;-69
2023/04/24 03:45:38;;;;;;;6.43;4.88;;;;;;;17.55;57.94;99854.59;4964041;28;96787;-69
2023/04/24 03:48:04;;;;;;;4.97;4.47;;;;;;;17.56;57.99;99869.66;4969243;28;98861;-71
2023/04/24 03:50:31;;;;;;;5.13;4.63;;;;;;;17.59;57.89;99863.22;4963394;28;99160;-70
2023/04/24 03:52:57;;;;;;;5.93;5.18;;;;;;;17.51;58.15;99862.00;4969145;28;96815;-70
2023/04/24 03:55:24;;;;;;;4.85;4.43;;;;;;;17.64;57.72;99851.25;4968577;28;97051;-70
2023/04/24 03:57:51;;;;;;;7.72;4.88;;;;;;;17.47;58.17;99846.31;4968987;28;98991;-71
2023/04/24 04:00:18;;;;;;;9.93;4.82;;;;;;;17.81;57.14;99849.91;4969561;28;101397;-70
2023/04/24 04:02:45;;;;;;;8.00;4.63;;;;;;;17.75;57.12;99856.59;4970148;28;96826;-71
2023/04/24 04:05:11;;;;;;;10.15;4.70;;;;;;;17.74;57.21;99854.88;4963932;28;96951;-70
2023/04/24 04:07:37;;;;;;;6.65;4.53;;;;;;;17.78;57.12;99848.34;4970363;28;99060;-70
2023/04/24 04:10:04;;;;;;;4.68;4.25;;;;;;;17.73;57.16;99847.81;4969084;28;99252;-69
2023/04/24 04:12:31;;;;;;;4.80;4.40;;;;;;;17.77;57.07;99837.75;4964747;28;98970;-70
2023/04/24 04:14:59;;;;;;;4.55;4.05;;;;;;;17.64;57.36;99839.69;4968017;28;97408;-70
2023/04/24 04:17:25;;;;;;;6.70;4.13;;;;;;;17.56;57.47;99842.94;4969563;28;98913;-71
2023/04/24 04:19:51;;;;;;;7.10;4.53;;;;;;;17.93;56.59;99841.75;4966813;28;101198;-70
2023/04/24 04:22:18;;;;;;;5.93;3.97;;;;;;;17.79;56.90;99839.31;4964447;28;99184;-70
2023/04/24 04:24:46;;;;;;;4.93;4.38;;;;;;;17.89;56.55;99836.78;4963244;28;96788;-70
2023/04/24 04:27:12;;;;;;;5.07;4.47;;;;;;;17.87;56.66;99836.03;4968100;28;102012;-70
2023/04/24 04:29:39;;;;;;;7.10;4.78;;;;;;;17.72;57.07;99842.63;4966892;28;98870;-70
2023/04/24 04:32:07;;;;;;;6.80;4.63;;;;;;;17.95;56.50;99844.31;4964067;28;98343;-69
2023/04/24 04:34:33;;;;;;;5.10;3.90;;;;;;;17.90;56.49;99841.16;4968225;28;97517;-70
2023/04/24 04:37:02;;;;;;;6.22;4.05;;;;;;;17.59;57.00;99836.53;4966937;28;99247;-69
2023/04/24 04:39:29;;;;;;;5.00;3.80;;;;;;;17.90;56.42;99842.00;4969039;28;99864;-70
2023/04/24 04:41:56;;;;;;;6.57;4.25;;;;;;;17.91;56.40;99842.88;4968578;28;96742;-70
2023/04/24 04:44:23;;;;;;;4.57;4.00;;;;;;;17.84;56.40;99850.53;4962410;28;96882;-70
2023/04/24 04:46:50;;;;;;;3.92;3.53;;;;;;;17.74;56.59;99854.03;4968813;28;98993;-70
2023/04/24 04:49:18;;;;;;;8.35;4.20;;;;;;;17.76;56.76;99860.09;4967570;28;100811;-69
2023/04/24 04:51:44;;;;;;;4.22;3.78;;;;;;;17.64;57.05;99861.06;4969709;28;96818;-70
2023/04/24 04:54:11;;;;;;;5.47;3.97;;;;;;;17.79;56.71;99866.03;4962193;28;97745;-71
2023/04/24 04:56:37;;;;;;;5.68;3.28;;;;;;;17.75;56.76;99863.75;4957413;28;101924;-69
2023/04/24 04:59:03;;;;;;;6.32;3.90;;;;;;;17.74;56.65;99872.72;4958826;28;99444;-70
2023/04/24 05:01:30;;;;;;;5.80;3.95;;;;;;;17.88;56.49;99867.16;4963726;28;96941;-70
2023/04/24 05:03:57;;;;;;;5.38;3.78;;;;;;;17.96;56.07;99871.88;4960974;28;99214;-69
2023/04/24 05:06:25;;;;;;;3.42;3.13;;;;;;;17.65;56.85;99868.97;4965749;28;99202;-70
2023/04/24 05:08:55;;;;;;;3.55;3.15;;;;;;;17.77;56.72;99875.16;4964400;28;98182;-70
2023/04/24 05:11:22;;;;;;;5.43;3.40;;;;;;;17.79;56.58;99875.88;4964579;28;96858;-71
2023/04/24 05:13:48;;;;;;;5.55;3.33;;;;;;;17.71;56.88;99875.66;4956624;28;99087;-71
2023/04/24 05:16:15;;;;;;;4.05;3.30;;;;;;;17.74;57.05;99878.06;4966917;28;99070;-70
2023/04/24 05:18:41;;;;;;;7.10;3.65;;;;;;;17.72;57.16;99872.84;4965094;28;99221;-70
2023/04/24 05:21:08;;;;;;;6.15;3.40;;;;;;;17.81;56.45;99868.59;4962043;28;96943;-70
2023/04/24 05:23:36;;;;;;;4.28;3.03;;;;;;;17.82;56.43;99865.81;4961258;28;97523;-71
2023/04/24 05:26:02;;;;;;;4.38;3.05;;;;;;;18.01;55.99;99875.88;4963349;28;99800;-69
2023/04/24 05:28:29;;;;;;;3.67;2.75;;;;;;;18.00;55.80;99884.03;4961677;28;99290;-69
2023/04/24 05:30:56;;;;;;;3.60;2.67;;;;;;;17.98;55.82;99877.97;4966857;28;96898;-69
2023/04/24 05:33:22;;;;;;;4.15;2.80;;;;;;;18.20;55.08;99886.81;4965436;28;97685;-69
2023/04/24 05:35:49;;;;;;;3.17;2.40;;;;;;;17.91;55.52;99885.63;4964244;28;98922;-69
2023/04/24 05:38:17;;;;;;;9.00;2.50;;;;;;;17.79;55.81;99882.06;4958096;28;98818;-69
2023/04/24 05:40:45;;;;;;;8.80;2.83;;;;;;;17.80;55.87;99883.78;4966883;28;97125;-69
2023/04/24 05:43:12;;;;;;;3.40;2.60;;;;;;;17.98;55.34;99880.66;4956416;28;97191;-69
2023/04/24 05:45:38;;;;;;;2.25;2.05;;;;;;;17.67;56.04;99882.19;4959662;28;98930;-69
2023/04/24 05:48:06;;;;;;;5.07;2.40;;;;;;;17.93;55.25;99889.84;4958095;28;98728;-69
2023/04/24 05:50:32;;;;;;;2.58;2.38;;;;;;;18.02;54.81;99882.09;4960503;28;98906;-71
2023/04/24 05:52:59;;;;;;;2.20;2.00;;;;;;;17.74;55.31;99878.91;4967386;28;97097;-70
2023/04/24 05:55:25;;;;;;;3.83;1.90;;;;;;;17.57;56.33;99892.72;4961594;28;98827;-70
2023/04/24 05:57:53;;;;;;;3.05;1.83;;;;;;;17.53;56.12;99892.09;4962523;28;98828;-70
2023/04/24 06:00:20;;;;;;;6.18;2.00;;;;;;;17.70;56.05;99898.00;4966264;28;97831;-71
2023/04/24 06:02:47;;;;;;;3.92;2.03;;;;;;;17.80;55.61;99888.28;4960630;28;99148;-70
2023/04/24 06:05:14;;;;;;;1.95;1.80;;;;;;;18.21;54.56;99890.34;4957913;28;99318;-70
2023/04/24 06:07:41;;;;;;;4.65;1.95;;;;;;;18.06;54.71;99894.22;4968084;28;99303;-70
2023/04/24 06:10:09;;;;;;;6.63;2.15;;;;;;;18.08;54.46;99897.63;4964775;28;97306;-70
2023/04/24 06:12:35;;;;;;;27.08;3.22;;;;;;;18.44;53.66;99904.53;4960355;28;96905;-71
2023/04/24 06:15:03;;;;;;;1.73;1.58;;;;;;;18.53;53.09;99909.97;4966403;28;99093;-70
2023/04/24 06:17:29;;;;;;;2.08;1.88;;;;;;;18.57;52.86;99900.78;4965379;28;98931;-71
2023/04/24 06:19:56;;;;;;;2.30;2.00;;;;;;;18.82;52.28;99904.09;4959115;28;97196;-69
2023/04/24 06:22:22;;;;;;;3.05;1.42;;;;;;;18.93;51.84;99904.03;4962207;28;96936;-69
2023/04/24 06:24:49;;;;;;;2.70;1.60;;;;;;;19.04;50.99;99904.84;4958661;28;99495;-69
2023/04/24 06:27:15;;;;;;;2.42;1.35;;;;;;;19.35;50.39;99905.81;4967505;28;100546;-69
2023/04/24 06:29:42;;;;;;;2.53;1.40;;;;;;;19.17;50.57;99915.38;4969068;28;98111;-70
2023/04/24 06:32:12;;;;;;;3.70;1.38;;;;;;;19.34;50.10;99909.47;4967699;28;97265;-70
2023/04/24 06:34:39;;;;;;;2.03;1.40;;;;;;;19.54;49.25;99912.31;4962812;28;99464;-72
2023/04/24 06:37:05;;;;;;;1.88;1.10;;;;;;;19.41;48.76;99913.31;4969199;28;98981;-72
2023/04/24 06:39:31;;;;;;;2.80;1.17;;;;;;;19.32;49.29;99902.53;4963490;28;98943;-72
2023/04/24 06:41:59;;;;;;;1.38;1.20;;;;;;;19.75;48.28;99914.00;4970149;28;96870;-72
2023/04/24 06:44:25;;;;;;;2.15;0.98;;;;;;;19.98;47.36;99914.66;4967679;28;98793;-72
2023/04/24 06:46:52;;;;;;;5.60;1.17;;;;;;;20.33;46.80;99921.47;4955298;28;101294;-73
2023/04/24 06:49:19;;;;;;;0.80;0.80;;;;;;;20.54;45.37;99925.78;4962611;28;96970;-73
2023/04/24 06:51:46;;;;;;;2.83;0.93;;;;;;;20.16;46.31;99907.66;4966399;28;97659;-73
2023/04/24 06:54:12;;;;;;;2.60;1.30;;;;;;;20.16;45.93;99893.41;4963376;28;98139;-72
2023/04/24 06:56:39;;;;;;;3.40;0.80;;;;;;;20.09;45.47;99903.81;4963059;28;98818;-72
2023/04/24 06:59:05;;;;;;;1.08;0.70;;;;;;;20.10;45.18;99907.34;4968137;28;96760;-72
2023/04/24 07:01:32;;;;;;;0.60;0.60;;;;;;;20.09;45.23;99903.81;4964199;28;97194;-72
2023/04/24 07:03:59;;;;;;;2.50;0.65;;;;;;;20.33;44.97;99902.69;4961017;28;99479;-71
2023/04/24 07:06:27;;;;;;;1.20;0.75;;;;;;;20.32;43.93;99903.63;4961721;28;99578;-72
2023/04/24 07:08:53;;;;;;;0.63;0.63;;;;;;;20.18;44.64;99900.34;4963621;28;96831;-72
2023/04/24 07:11:19;;;;;;;2.78;0.77;;;;;;;20.37;44.25;99896.06;4967134;28;97212;-72
2023/04/24 07:13:46;;;;;;;2.53;0.60;;;;;;;20.68;43.65;99903.88;4954994;28;98943;-72
2023/04/24 07:16:12;;;;;;;1.85;0.60;;;;;;;20.51;43.24;99892.97;4965733;28;98911;-72
2023/04/24 07:18:39;;;;;;;1.00;0.80;;;;;;;20.43;43.43;99888.28;4957995;28;98878;-72
2023/04/24 07:21:06;;;;;;;0.70;0.60;;;;;;;20.95;42.62;99897.84;4965137;28;97111;-72
2023/04/24 07:23:34;;;;;;;1.05;0.50;;;;;;;20.89;41.92;99901.09;4964890;28;98224;-72
2023/04/24 07:26:00;;;;;;;1.13;0.40;;;;;;;21.12;41.61;99898.97;4958084;28;100895;-72
2023/04/24 07:28:26;;;;;;;1.85;0.60;;;;;;;21.20;40.56;99901.81;4962066;28;97269;-72
2023/04/24 07:30:53;;;;;;;1.30;0.60;;;;;;;21.26;40.62;99901.28;4958573;28;97347;-71
2023/04/24 07:33:20;;;;;;;1.27;0.50;;;;;;;21.27;40.73;99897.56;4964615;28;97713;-73
2023/04/24 07:35:46;;;;;;;1.60;0.50;;;;;;;21.40;40.41;99908.88;4960601;28;99399;-73
2023/04/24 07:38:13;;;;;;;0.50;0.40;;;;;;;21.58;40.40;99906.31;4953416;28;97455;-74
2023/04/24 07:40:40;;;;;;;1.27;0.47;;;;;;;21.68;39.78;99906.28;4962757;28;98983;-73
2023/04/24 07:43:07;;;;;;;2.58;0.60;;;;;;;22.09;38.96;99902.34;4965698;28;99092;-74
2023/04/24 07:45:36;;;;;;;1.50;0.70;;;;;;;22.00;38.74;99905.91;4958112;28;98974;-73
2023/04/24 07:48:03;;;;;;;3.03;0.65;;;;;;;22.17;38.26;99891.72;4968356;28;96738;-74
2023/04/24 07:50:30;;;;;;;0.43;0.40;;;;;;;22.19;38.21;99887.84;4969810;28;96844;-72
2023/04/24 07:52:56;;;;;;;2.17;0.40;;;;;;;22.19;37.96;99890.53;4966771;28;97720;-72
2023/04/24 07:55:23;;;;;;;0.50;0.40;;;;;;;22.21;37.63;99898.47;4967998;28;98861;-73
2023/04/24 07:57:50;;;;;;;0.55;0.20;;;;;;;22.15;37.56;99899.06;4962002;28;101563;-72
2023/04/24 08:00:17;;;;;;;1.20;0.47;;;;;;;22.94;36.10;99896.63;4969479;28;96795;-71
2023/04/24 08:02:44;;;;;;;0.80;0.40;;;;;;;23.04;35.14;99898.22;4960481;28;100957;-72
2023/04/24 08:05:10;;;;;;;0.85;0.30;;;;;;;22.89;35.07;99894.41;4967029;28;98895;-72
2023/04/24 08:07:37;;;;;;;2.83;0.32;;;;;;;23.56;33.87;99894.84;4965588;28;97211;-72
2023/04/24 08:10:04;;;;;;;0.63;0.35;;;;;;;23.48;33.93;99897.47;4958527;28;96896;-73
2023/04/24 08:12:30;;;;;;;0.60;0.30;;;;;;;23.78;32.99;99892.44;4964402;28;99053;-72
2023/04/24 08:14:58;;;;;;;1.30;0.50;;;;;;;24.04;32.81;99899.66;4961333;28;98832;-73
2023/04/24 08:17:25;;;;;;;3.15;0.50;;;;;;;24.04;32.46;99891.56;4957917;28;97121;-73
2023/04/24 08:19:53;;;;;;;2.40;0.40;;;;;;;23.82;32.60;99912.72;4955728;28;97898;-73
2023/04/24 08:22:19;;;;;;;2.03;0.38;;;;;;;23.80;32.38;99906.63;4967042;28;99088;-73
2023/04/24 08:24:45;;;;;;;1.88;0.40;;;;;;;23.34;32.71;99897.00;4957874;28;99181;-73
2023/04/24 08:27:12;;;;;;;0.45;0.32;;;;;;;22.80;33.43;99898.00;4962424;28;96946;-73
2023/04/24 08:29:38;;;;;;;1.15;0.28;;;;;;;22.66;33.44;99903.88;4963000;28;96932;-73
2023/04/24 08:32:06;;;;;;;3.15;0.43;;;;;;;22.55;34.08;99896.88;4963376;28;98826;-73
2023/04/24 08:34:32;;;;;;;0.52;0.50;;;;;;;22.50;33.92;99884.88;4955177;28;99231;-72
2023/04/24 08:36:59;;;;;;;5.75;2.42;;;;;;;22.63;33.70;99885.34;4961234;28;97832;-72
2023/04/24 08:39:25;;;;;;;3.25;0.45;;;;;;;22.54;33.23;99889.78;4961269;28;97177;-72
2023/04/24 08:41:53;;;;;;;0.30;0.28;;;;;;;22.33;33.70;99894.59;4966237;28;99065;-73
2023/04/24 08:44:20;;;;;;;2.90;0.98;;;;;;;22.44;33.75;99891.72;4962206;28;99316;-72
2023/04/24 08:46:48;;;;;;;2.00;0.20;;;;;;;22.28;33.53;99894.19;4958010;28;100064;-72
2023/04/24 08:49:17;;;;;;;0.40;0.30;;;;;;;22.12;33.76;99892.13;4959377;28;96935;-73
2023/04/24 08:51:43;;;;;;;2.28;0.40;;;;;;;22.44;33.71;99894.41;4966581;28;99414;-73
2023/04/24 08:54:09;;;;;;;2.13;0.40;;;;;;;23.04;32.55;99895.53;4964662;28;99458;-73
2023/04/24 08:56:39;;;;;;;2.75;0.40;;;;;;;22.85;32.63;99892.16;4965445;28;96905;-74
2023/04/24 08:59:06;;;;;;;0.30;0.20;;;;;;;22.79;33.10;99900.84;4960633;28;96898;-72
2023/04/24 09:01:36;;;;;;;3.17;0.38;;;;;;;22.66;33.09;99899.34;4961509;28;99255;-71
2023/04/24 09:04:04;;;;;;;1.85;0.40;;;;;;;22.83;32.73;99896.88;4960946;28;99616;-73
2023/04/24 09:06:33;;;;;;;2.92;0.60;;;;;;;22.71;32.42;99903.44;4965907;28;98032;-74
2023/04/24 09:09:01;;;;;;;0.63;0.38;;;;;;;22.35;33.52;99897.97;4964047;28;97432;-73
2023/04/24 09:11:28;;;;;;;0.85;0.22;;;;;;;22.33;33.92;99904.50;4960674;28;99760;-73
2023/04/24 09:13:55;;;;;;;0.57;0.50;;;;;;;22.38;34.24;99910.31;4958817;28;99282;-72
2023/04/24 09:16:23;;;;;;;2.05;0.30;;;;;;;22.41;34.54;99888.44;4951308;28;96787;-72
2023/04/24 09:18:49;;;;;;;2.20;0.50;;;;;;;22.90;33.93;99897.94;4957034;28;97864;-72
2023/04/24 09:21:16;;;;;;;1.50;0.70;;;;;;;22.67;34.41;99900.19;4960265;28;102462;-71
2023/04/24 09:23:44;;;;;;;0.60;0.30;;;;;;;22.72;34.37;99897.03;4957988;28;99122;-72
2023/04/24 09:26:11;;;;;;;0.65;0.40;;;;;;;22.91;34.44;99891.53;4955882;28;98701;-72
2023/04/24 09:28:39;;;;;;;2.05;0.50;;;;;;;22.89;34.73;99893.56;4959191;28;97735;-72
2023/04/24 09:31:08;;;;;;;1.77;0.55;;;;;;;22.68;35.58;99907.28;4960805;28;98856;-72
2023/04/24 09:33:35;;;;;;;2.35;0.75;;;;;;;22.32;36.52;99911.72;4963165;28;101429;-72
2023/04/24 09:36:02;;;;;;;2.38;0.60;;;;;;;22.30;36.57;99904.81;4961943;28;96771;-73
2023/04/24 09:38:33;;;;;;;0.68;0.40;;;;;;;22.28;37.06;99904.97;4956425;28;98252;-73
2023/04/24 09:41:03;;;;;;;1.20;0.55;;;;;;;22.93;36.42;99906.56;4960537;28;98829;-72
2023/04/24 09:43:29;;;;;;;2.95;0.65;;;;;;;22.62;37.31;99903.34;4964566;28;99218;-73
2023/04/24 09:45:58;;;;;;;1.50;0.60;;;;;;;22.57;36.99;99911.03;4961451;28;96837;-71
2023/04/24 09:48:31;;;;;;;0.88;0.43;;;;;;;22.87;36.92;99909.00;4960601;28;98942;-72
2023/04/24 09:50:57;;;;;;;1.02;0.50;;;;;;;22.46;37.46;99907.69;4957187;28;98662;-71
2023/04/24 09:53:25;;;;;;;1.77;0.90;;;;;;;22.33;37.63;99905.34;4961538;28;99085;-72
2023/04/24 09:55:52;;;;;;;2.25;0.50;;;;;;;22.51;37.27;99905.41;4968939;28;96822;-72
2023/04/24 09:58:26;;;;;;;2.88;0.63;;;;;;;22.74;36.21;99909.41;4962230;28;97214;-72
2023/04/24 10:00:54;;;;;;;5.80;0.57;;;;;;;22.64;36.21;99906.72;4966100;28;98962;-73
2023/04/24 10:03:20;;;;;;;1.10;0.68;;;;;;;22.78;36.32;99896.44;4963553;28;97680;-73
2023/04/24 10:05:47;;;;;;;1.80;0.68;;;;;;;22.88;36.29;99898.09;4956450;28;98527;-73
2023/04/24 10:08:14;;;;;;;5.25;0.38;;;;;;;23.04;35.61;99892.00;4963492;28;96865;-72
2023/04/24 10:10:42;;;;;;;2.42;0.63;;;;;;;23.04;35.82;99894.69;4966539;28;99466;-72
2023/04/24 10:13:10;;;;;;;3.20;0.55;;;;;;;22.76;36.05;99893.09;4964247;28;98760;-73
2023/04/24 10:15:41;;;;;;;0.63;0.40;;;;;;;22.74;36.45;99895.94;4964144;28;97650;-72
2023/04/24 10:18:09;;;;;;;3.00;0.43;;;;;;;22.95;35.97;99896.47;4964538;28;97880;-72
2023/04/24 10:20:37;;;;;;;2.53;0.50;;;;;;;23.01;35.80;99903.94;4964961;28;99503;-73
2023/04/24 10:23:04;;;;;;;0.65;0.38;;;;;;;22.76;36.37;99895.78;4961335;28;97869;-72
2023/04/24 10:25:32;;;;;;;0.45;0.45;;;;;;;22.94;36.40;99892.09;4964718;28;97013;-72
2023/04/24 10:28:00;;;;;;;1.63;0.60;;;;;;;22.84;36.30;99893.19;4966403;28;97125;-72
2023/04/24 10:30:29;;;;;;;1.85;0.90;;;;;;;22.66;36.77;99896.66;4965805;28;99068;-73
2023/04/24 10:32:57;;;;;;;2.70;0.75;;;;;;;22.51;36.92;99894.66;4959670;28;99128;-73
2023/04/24 10:35:26;;;;;;;2.60;0.80;;;;;;;21.83;37.77;99897.59;4967495;28;97247;-71
2023/04/24 10:37:57;;;;;;;3.03;0.50;;;;;;;21.76;38.15;99891.13;4964543;28;97201;-73
2023/04/24 10:40:28;;;;;;;3.38;0.75;;;;;;;21.94;38.38;99895.72;4961773;28;98948;-76
2023/04/24 10:42:54;;;;;;;1.20;0.63;;;;;;;21.87;38.58;99896.31;4963855;28;97911;-73
2023/04/24 10:45:22;;;;;;;2.03;0.55;;;;;;;21.92;38.27;99898.59;4960945;28;97093;-73
2023/04/24 10:47:53;;;;;;;0.45;0.40;;;;;;;22.15;38.21;99901.75;4959615;28;97316;-72
2023/04/24 10:50:21;;;;;;;2.13;0.50;;;;;;;21.82;38.52;99895.91;4957106;28;98825;-73
2023/04/24 10:52:48;;;;;;;6.40;0.77;;;;;;;21.43;39.06;99907.75;4965502;28;99751;-72
2023/04/24 10:55:15;;;;;;;2.42;0.50;;;;;;;21.61;38.87;99899.78;4966996;28;97518;-75
2023/04/24 10:58:03;;;;;;;2.15;0.63;;;;;;;22.18;37.90;99893.41;4965377;28;97374;-73
2023/04/24 11:00:30;;;;;;;2.58;0.60;;;;;;;22.14;36.67;99898.22;4962813;28;98888;-72
2023/04/24 11:02:57;;;;;;;1.45;0.55;;;;;;;22.57;36.15;99894.88;4960938;28;98982;-73
2023/04/24 11:05:50;;;;;;;5.07;0.73;;;;;;;22.38;36.56;99889.63;4962847;28;97201;-74
2023/04/24 11:08:23;;;;;;;2.17;0.60;;;;;;;22.85;36.28;99892.16;4954703;28;97606;-73
2023/04/24 11:10:56;;;;;;;0.30;0.28;;;;;;;22.77;35.63;99889.41;4966551;28;98957;-73
2023/04/24 11:13:26;;;;;;;1.77;0.50;;;;;;;23.18;35.14;99888.75;4960920;28;98185;-72
2023/04/24 11:16:21;;;;;;;0.88;0.38;;;;;;;23.52;34.75;99893.44;4962511;28;96778;-73
2023/04/24 11:18:54;;;;;;;0.98;0.47;;;;;;;24.13;33.84;99880.66;4959034;28;96894;-73
2023/04/24 11:21:21;;;;;;;1.52;0.55;;;;;;;23.90;34.24;99879.53;4961236;28;99261;-74
2023/04/24 11:23:47;;;;;;;4.78;0.60;;;;;;;24.17;34.04;99876.63;4958508;28;99106;-73
2023/04/24 11:26:18;;;;;;;1.38;0.52;;;;;;;24.11;33.26;99873.72;4967152;28;97352;-73
2023/04/24 11:28:47;;;;;;;1.00;0.70;;;;;;;23.51;33.47;99878.25;4963941;28;96857;-73
2023/04/24 11:31:36;;;;;;;1.52;0.47;;;;;;;22.72;35.46;99888.94;4959181;28;99259;-73